sensor_id;sensor_type;location;lat;lon;timestamp;P1;durP1;ratioP1;P2;durP2;ratioP2
52210;SDS011;38179;52.756;6.906;2022-07-29T00:01:23;19.85;;;18.35;;
52210;SDS011;38179;52.756;6.906;2022-07-29T00:03:48;19.02;;;17.52;;
52210;SDS011;38179;52.756;6.906;2022-07-29T00:06:15;19.58;;;18.00;;
52210;SDS011;38179;52.756;6.906;2022-07-29T00:08:41;19.80;;;18.20;;
52210;SDS011;38179;52.756;6.906;2022-07-29T00:11:07;19.35;;;17.85;;
52210;SDS011;38179;52.756;6.906;2022-07-29T00:13:32;19.90;;;18.25;;
52210;SDS011;38179;52.756;6.906;2022-07-29T00:15:58;19.50;;;18.00;;
52210;SDS011;38179;52.756;6.906;2022-07-29T00:18:24;19.48;;;17.98;;
52210;SDS011;38179;52.756;6.906;2022-07-29T00:20:50;19.17;;;17.70;;
52210;SDS011;38179;52.756;6.906;2022-07-29T00:23:16;19.02;;;17.42;;
52210;SDS011;38179;52.756;6.906;2022-07-29T00:25:42;19.17;;;17.67;;
52210;SDS011;38179;52.756;6.906;2022-07-29T00:28:08;19.90;;;18.20;;
52210;SDS011;38179;52.756;6.906;2022-07-29T00:30:34;19.25;;;17.75;;
52210;SDS011;38179;52.756;6.906;2022-07-29T00:33:00;20.02;;;18.30;;
52210;SDS011;38179;52.756;6.906;2022-07-29T00:35:25;19.77;;;18.15;;
52210;SDS011;38179;52.756;6.906;2022-07-29T00:38:10;19.40;;;17.70;;
52210;SDS011;38179;52.756;6.906;2022-07-29T00:40:37;19.77;;;18.00;;
52210;SDS011;38179;52.756;6.906;2022-07-29T00:43:03;20.60;;;18.52;;
52210;SDS011;38179;52.756;6.906;2022-07-29T00:45:29;19.83;;;18.02;;
52210;SDS011;38179;52.756;6.906;2022-07-29T00:47:55;19.08;;;17.67;;
52210;SDS011;38179;52.756;6.906;2022-07-29T00:50:21;19.70;;;18.10;;
52210;SDS011;38179;52.756;6.906;2022-07-29T00:52:47;18.75;;;17.15;;
52210;SDS011;38179;52.756;6.906;2022-07-29T00:55:14;19.88;;;18.27;;
52210;SDS011;38179;52.756;6.906;2022-07-29T00:57:42;19.30;;;17.80;;
52210;SDS011;38179;52.756;6.906;2022-07-29T01:00:10;19.27;;;17.75;;
52210;SDS011;38179;52.756;6.906;2022-07-29T01:02:38;19.77;;;18.27;;
52210;SDS011;38179;52.756;6.906;2022-07-29T01:05:04;20.15;;;18.45;;
52210;SDS011;38179;52.756;6.906;2022-07-29T01:07:31;19.25;;;17.65;;
52210;SDS011;38179;52.756;6.906;2022-07-29T01:10:00;19.20;;;17.80;;
52210;SDS011;38179;52.756;6.906;2022-07-29T01:12:28;19.15;;;17.67;;
52210;SDS011;38179;52.756;6.906;2022-07-29T01:14:58;19.10;;;17.60;;
52210;SDS011;38179;52.756;6.906;2022-07-29T01:31:20;19.60;;;18.10;;
52210;SDS011;38179;52.756;6.906;2022-07-29T01:33:55;20.35;;;18.52;;
52210;SDS011;38179;52.756;6.906;2022-07-29T01:36:36;19.05;;;17.65;;
52210;SDS011;38179;52.756;6.906;2022-07-29T01:39:12;19.88;;;18.13;;
52210;SDS011;38179;52.756;6.906;2022-07-29T01:41:48;19.92;;;18.17;;
52210;SDS011;38179;52.756;6.906;2022-07-29T01:44:22;19.58;;;18.08;;
52210;SDS011;38179;52.756;6.906;2022-07-29T01:46:58;19.17;;;17.67;;
52210;SDS011;38179;52.756;6.906;2022-07-29T01:49:29;19.38;;;17.70;;
52210;SDS011;38179;52.756;6.906;2022-07-29T01:52:02;19.33;;;17.88;;
52210;SDS011;38179;52.756;6.906;2022-07-29T01:57:14;19.27;;;17.77;;
52210;SDS011;38179;52.756;6.906;2022-07-29T01:59:45;18.92;;;17.42;;
52210;SDS011;38179;52.756;6.906;2022-07-29T02:02:13;19.83;;;17.92;;
52210;SDS011;38179;52.756;6.906;2022-07-29T02:04:41;19.58;;;17.90;;
52210;SDS011;38179;52.756;6.906;2022-07-29T02:07:10;19.58;;;18.08;;
52210;SDS011;38179;52.756;6.906;2022-07-29T02:09:40;20.00;;;18.40;;
52210;SDS011;38179;52.756;6.906;2022-07-29T02:12:07;19.48;;;17.67;;
52210;SDS011;38179;52.756;6.906;2022-07-29T02:14:37;19.48;;;17.77;;
52210;SDS011;38179;52.756;6.906;2022-07-29T02:17:05;19.83;;;18.23;;
52210;SDS011;38179;52.756;6.906;2022-07-29T02:19:32;19.52;;;17.80;;
52210;SDS011;38179;52.756;6.906;2022-07-29T02:22:01;20.00;;;18.40;;
52210;SDS011;38179;52.756;6.906;2022-07-29T02:24:28;20.90;;;18.90;;
52210;SDS011;38179;52.756;6.906;2022-07-29T02:26:56;18.77;;;17.27;;
52210;SDS011;38179;52.756;6.906;2022-07-29T02:29:25;20.40;;;18.63;;
52210;SDS011;38179;52.756;6.906;2022-07-29T02:31:52;19.40;;;18.00;;
52210;SDS011;38179;52.756;6.906;2022-07-29T02:34:20;19.40;;;17.80;;
52210;SDS011;38179;52.756;6.906;2022-07-29T02:36:47;20.17;;;18.65;;
52210;SDS011;38179;52.756;6.906;2022-07-29T02:39:14;19.17;;;17.48;;
52210;SDS011;38179;52.756;6.906;2022-07-29T02:41:42;19.20;;;17.70;;
52210;SDS011;38179;52.756;6.906;2022-07-29T02:44:14;19.35;;;17.85;;
52210;SDS011;38179;52.756;6.906;2022-07-29T02:46:52;19.23;;;17.33;;
52210;SDS011;38179;52.756;6.906;2022-07-29T02:49:35;19.98;;;18.48;;
52210;SDS011;38179;52.756;6.906;2022-07-29T02:57:46;19.25;;;17.73;;
52210;SDS011;38179;52.756;6.906;2022-07-29T03:00:16;19.05;;;17.55;;
52210;SDS011;38179;52.756;6.906;2022-07-29T03:02:45;19.67;;;17.95;;
52210;SDS011;38179;52.756;6.906;2022-07-29T03:05:18;20.48;;;18.65;;
52210;SDS011;38179;52.756;6.906;2022-07-29T03:07:47;19.40;;;17.60;;
52210;SDS011;38179;52.756;6.906;2022-07-29T03:10:18;20.15;;;18.45;;
52210;SDS011;38179;52.756;6.906;2022-07-29T03:12:44;20.20;;;18.35;;
52210;SDS011;38179;52.756;6.906;2022-07-29T03:15:10;19.35;;;17.95;;
52210;SDS011;38179;52.756;6.906;2022-07-29T03:17:37;18.75;;;17.35;;
52210;SDS011;38179;52.756;6.906;2022-07-29T03:20:04;19.52;;;18.02;;
52210;SDS011;38179;52.756;6.906;2022-07-29T03:22:32;19.23;;;17.73;;
52210;SDS011;38179;52.756;6.906;2022-07-29T03:25:07;19.20;;;17.60;;
52210;SDS011;38179;52.756;6.906;2022-07-29T03:27:34;19.63;;;18.13;;
52210;SDS011;38179;52.756;6.906;2022-07-29T03:29:59;18.95;;;17.45;;
52210;SDS011;38179;52.756;6.906;2022-07-29T03:32:25;19.05;;;17.50;;
52210;SDS011;38179;52.756;6.906;2022-07-29T03:34:51;19.60;;;17.67;;
52210;SDS011;38179;52.756;6.906;2022-07-29T03:37:17;19.75;;;18.25;;
52210;SDS011;38179;52.756;6.906;2022-07-29T03:39:43;19.42;;;17.90;;
52210;SDS011;38179;52.756;6.906;2022-07-29T03:42:11;19.92;;;18.13;;
52210;SDS011;38179;52.756;6.906;2022-07-29T03:44:41;18.92;;;17.42;;
52210;SDS011;38179;52.756;6.906;2022-07-29T03:47:10;18.98;;;17.50;;
52210;SDS011;38179;52.756;6.906;2022-07-29T03:49:40;20.23;;;18.52;;
52210;SDS011;38179;52.756;6.906;2022-07-29T03:52:07;19.98;;;18.27;;
52210;SDS011;38179;52.756;6.906;2022-07-29T03:54:33;19.60;;;17.90;;
52210;SDS011;38179;52.756;6.906;2022-07-29T03:57:00;18.77;;;17.27;;
52210;SDS011;38179;52.756;6.906;2022-07-29T03:59:27;19.08;;;17.65;;
52210;SDS011;38179;52.756;6.906;2022-07-29T04:01:55;19.42;;;17.73;;
52210;SDS011;38179;52.756;6.906;2022-07-29T04:04:23;19.48;;;17.88;;
52210;SDS011;38179;52.756;6.906;2022-07-29T04:06:49;19.00;;;17.48;;
52210;SDS011;38179;52.756;6.906;2022-07-29T04:09:15;19.38;;;17.88;;
52210;SDS011;38179;52.756;6.906;2022-07-29T04:11:41;19.73;;;18.02;;
52210;SDS011;38179;52.756;6.906;2022-07-29T04:14:07;19.42;;;17.73;;
52210;SDS011;38179;52.756;6.906;2022-07-29T04:16:33;19.88;;;17.88;;
52210;SDS011;38179;52.756;6.906;2022-07-29T04:18:59;19.35;;;17.60;;
52210;SDS011;38179;52.756;6.906;2022-07-29T04:21:25;19.23;;;17.45;;
52210;SDS011;38179;52.756;6.906;2022-07-29T04:23:51;18.88;;;17.30;;
52210;SDS011;38179;52.756;6.906;2022-07-29T04:26:17;19.05;;;17.27;;
52210;SDS011;38179;52.756;6.906;2022-07-29T04:28:44;19.23;;;17.50;;
52210;SDS011;38179;52.756;6.906;2022-07-29T04:31:11;18.30;;;16.83;;
52210;SDS011;38179;52.756;6.906;2022-07-29T04:33:38;19.55;;;17.95;;
52210;SDS011;38179;52.756;6.906;2022-07-29T04:36:04;20.55;;;17.30;;
52210;SDS011;38179;52.756;6.906;2022-07-29T04:38:30;20.55;;;18.85;;
52210;SDS011;38179;52.756;6.906;2022-07-29T04:40:56;18.58;;;16.98;;
52210;SDS011;38179;52.756;6.906;2022-07-29T04:43:22;19.23;;;17.58;;
52210;SDS011;38179;52.756;6.906;2022-07-29T04:45:48;18.83;;;17.42;;
52210;SDS011;38179;52.756;6.906;2022-07-29T04:48:14;18.55;;;16.85;;
52210;SDS011;38179;52.756;6.906;2022-07-29T04:50:39;18.85;;;17.17;;
52210;SDS011;38179;52.756;6.906;2022-07-29T04:53:06;19.20;;;17.42;;
52210;SDS011;38179;52.756;6.906;2022-07-29T04:55:32;19.20;;;17.42;;
52210;SDS011;38179;52.756;6.906;2022-07-29T04:57:58;19.23;;;17.65;;
52210;SDS011;38179;52.756;6.906;2022-07-29T05:00:24;19.67;;;17.98;;
52210;SDS011;38179;52.756;6.906;2022-07-29T05:02:50;18.38;;;16.83;;
52210;SDS011;38179;52.756;6.906;2022-07-29T05:05:16;19.77;;;18.08;;
52210;SDS011;38179;52.756;6.906;2022-07-29T05:07:42;18.75;;;17.25;;
52210;SDS011;38179;52.756;6.906;2022-07-29T05:10:08;18.67;;;17.23;;
52210;SDS011;38179;52.756;6.906;2022-07-29T05:12:34;18.95;;;17.45;;
52210;SDS011;38179;52.756;6.906;2022-07-29T05:15:00;18.80;;;17.30;;
52210;SDS011;38179;52.756;6.906;2022-07-29T05:17:26;18.92;;;17.42;;
52210;SDS011;38179;52.756;6.906;2022-07-29T05:19:53;18.83;;;17.13;;
52210;SDS011;38179;52.756;6.906;2022-07-29T05:22:22;18.58;;;16.90;;
52210;SDS011;38179;52.756;6.906;2022-07-29T05:24:48;19.23;;;17.52;;
52210;SDS011;38179;52.756;6.906;2022-07-29T05:27:14;18.85;;;17.23;;
52210;SDS011;38179;52.756;6.906;2022-07-29T05:29:40;18.88;;;17.02;;
52210;SDS011;38179;52.756;6.906;2022-07-29T05:32:06;19.13;;;17.63;;
52210;SDS011;38179;52.756;6.906;2022-07-29T05:34:32;19.52;;;17.55;;
52210;SDS011;38179;52.756;6.906;2022-07-29T05:36:58;18.23;;;16.75;;
52210;SDS011;38179;52.756;6.906;2022-07-29T05:39:24;19.83;;;18.00;;
52210;SDS011;38179;52.756;6.906;2022-07-29T05:41:50;19.60;;;17.75;;
52210;SDS011;38179;52.756;6.906;2022-07-29T05:44:16;19.50;;;17.67;;
52210;SDS011;38179;52.756;6.906;2022-07-29T05:46:42;18.92;;;17.52;;
52210;SDS011;38179;52.756;6.906;2022-07-29T05:49:08;18.83;;;17.33;;
52210;SDS011;38179;52.756;6.906;2022-07-29T05:51:34;18.92;;;17.42;;
52210;SDS011;38179;52.756;6.906;2022-07-29T05:54:00;18.67;;;17.17;;
52210;SDS011;38179;52.756;6.906;2022-07-29T05:56:26;18.85;;;17.35;;
52210;SDS011;38179;52.756;6.906;2022-07-29T05:58:52;19.23;;;17.60;;
52210;SDS011;38179;52.756;6.906;2022-07-29T06:01:19;21.08;;;17.92;;
52210;SDS011;38179;52.756;6.906;2022-07-29T06:03:45;18.42;;;17.08;;
52210;SDS011;38179;52.756;6.906;2022-07-29T06:06:11;18.90;;;17.17;;
52210;SDS011;38179;52.756;6.906;2022-07-29T06:08:37;19.27;;;17.67;;
52210;SDS011;38179;52.756;6.906;2022-07-29T06:11:03;19.13;;;17.40;;
52210;SDS011;38179;52.756;6.906;2022-07-29T06:13:30;19.77;;;17.75;;
52210;SDS011;38179;52.756;6.906;2022-07-29T06:15:56;19.58;;;17.83;;
52210;SDS011;38179;52.756;6.906;2022-07-29T06:18:22;19.23;;;17.65;;
52210;SDS011;38179;52.756;6.906;2022-07-29T06:20:51;19.10;;;17.70;;
52210;SDS011;38179;52.756;6.906;2022-07-29T06:23:17;19.17;;;17.58;;
52210;SDS011;38179;52.756;6.906;2022-07-29T06:25:44;19.80;;;18.02;;
52210;SDS011;38179;52.756;6.906;2022-07-29T06:28:10;19.67;;;18.00;;
52210;SDS011;38179;52.756;6.906;2022-07-29T06:30:36;19.63;;;17.80;;
52210;SDS011;38179;52.756;6.906;2022-07-29T06:33:03;19.90;;;18.00;;
52210;SDS011;38179;52.756;6.906;2022-07-29T06:35:29;19.08;;;17.58;;
52210;SDS011;38179;52.756;6.906;2022-07-29T06:37:55;19.00;;;17.23;;
52210;SDS011;38179;52.756;6.906;2022-07-29T06:40:21;19.27;;;17.77;;
52210;SDS011;38179;52.756;6.906;2022-07-29T06:43:05;18.33;;;16.98;;
52210;SDS011;38179;52.756;6.906;2022-07-29T06:45:34;19.38;;;17.70;;
52210;SDS011;38179;52.756;6.906;2022-07-29T06:48:00;19.40;;;17.73;;
52210;SDS011;38179;52.756;6.906;2022-07-29T06:50:26;19.77;;;17.92;;
52210;SDS011;38179;52.756;6.906;2022-07-29T06:52:52;19.55;;;17.90;;
52210;SDS011;38179;52.756;6.906;2022-07-29T06:55:17;19.92;;;18.15;;
52210;SDS011;38179;52.756;6.906;2022-07-29T06:57:44;19.10;;;17.45;;
52210;SDS011;38179;52.756;6.906;2022-07-29T07:00:11;19.45;;;17.65;;
52210;SDS011;38179;52.756;6.906;2022-07-29T07:02:38;19.80;;;17.92;;
52210;SDS011;38179;52.756;6.906;2022-07-29T07:05:04;19.42;;;17.60;;
52210;SDS011;38179;52.756;6.906;2022-07-29T07:07:30;18.83;;;17.23;;
52210;SDS011;38179;52.756;6.906;2022-07-29T07:09:56;19.48;;;17.73;;
52210;SDS011;38179;52.756;6.906;2022-07-29T07:12:22;20.15;;;18.08;;
52210;SDS011;38179;52.756;6.906;2022-07-29T07:14:48;20.35;;;18.25;;
52210;SDS011;38179;52.756;6.906;2022-07-29T07:17:14;20.30;;;18.30;;
52210;SDS011;38179;52.756;6.906;2022-07-29T07:19:40;21.23;;;18.13;;
52210;SDS011;38179;52.756;6.906;2022-07-29T07:22:06;19.63;;;18.05;;
52210;SDS011;38179;52.756;6.906;2022-07-29T07:24:31;19.90;;;18.10;;
52210;SDS011;38179;52.756;6.906;2022-07-29T07:26:57;19.58;;;18.10;;
52210;SDS011;38179;52.756;6.906;2022-07-29T07:29:23;19.98;;;18.13;;
52210;SDS011;38179;52.756;6.906;2022-07-29T07:31:49;19.55;;;17.83;;
52210;SDS011;38179;52.756;6.906;2022-07-29T07:34:15;20.23;;;18.35;;
52210;SDS011;38179;52.756;6.906;2022-07-29T07:36:41;20.02;;;18.48;;
52210;SDS011;38179;52.756;6.906;2022-07-29T07:39:06;19.92;;;18.13;;
52210;SDS011;38179;52.756;6.906;2022-07-29T07:41:32;20.13;;;18.48;;
52210;SDS011;38179;52.756;6.906;2022-07-29T07:43:58;18.95;;;17.52;;
52210;SDS011;38179;52.756;6.906;2022-07-29T07:46:27;20.15;;;18.25;;
52210;SDS011;38179;52.756;6.906;2022-07-29T07:48:53;19.77;;;17.80;;
52210;SDS011;38179;52.756;6.906;2022-07-29T07:51:19;21.60;;;18.80;;
52210;SDS011;38179;52.756;6.906;2022-07-29T07:53:45;20.35;;;18.50;;
52210;SDS011;38179;52.756;6.906;2022-07-29T07:56:15;22.20;;;19.00;;
52210;SDS011;38179;52.756;6.906;2022-07-29T07:58:41;19.80;;;18.30;;
52210;SDS011;38179;52.756;6.906;2022-07-29T08:01:07;19.77;;;18.13;;
52210;SDS011;38179;52.756;6.906;2022-07-29T08:03:34;20.50;;;18.40;;
52210;SDS011;38179;52.756;6.906;2022-07-29T08:06:01;20.23;;;18.30;;
52210;SDS011;38179;52.756;6.906;2022-07-29T08:08:27;21.45;;;19.35;;
52210;SDS011;38179;52.756;6.906;2022-07-29T08:10:53;20.58;;;18.67;;
52210;SDS011;38179;52.756;6.906;2022-07-29T08:13:21;19.70;;;18.13;;
52210;SDS011;38179;52.756;6.906;2022-07-29T08:15:49;19.98;;;18.35;;
52210;SDS011;38179;52.756;6.906;2022-07-29T08:18:28;20.60;;;18.67;;
52210;SDS011;38179;52.756;6.906;2022-07-29T08:20:55;19.85;;;18.23;;
52210;SDS011;38179;52.756;6.906;2022-07-29T08:23:22;20.55;;;18.50;;
52210;SDS011;38179;52.756;6.906;2022-07-29T08:25:49;19.95;;;18.45;;
52210;SDS011;38179;52.756;6.906;2022-07-29T08:28:15;20.25;;;18.45;;
52210;SDS011;38179;52.756;6.906;2022-07-29T08:30:41;20.52;;;18.77;;
52210;SDS011;38179;52.756;6.906;2022-07-29T08:33:07;21.17;;;19.25;;
52210;SDS011;38179;52.756;6.906;2022-07-29T08:35:33;20.15;;;18.58;;
52210;SDS011;38179;52.756;6.906;2022-07-29T08:37:59;20.85;;;19.08;;
52210;SDS011;38179;52.756;6.906;2022-07-29T08:40:25;20.60;;;18.92;;
52210;SDS011;38179;52.756;6.906;2022-07-29T08:42:51;20.13;;;18.15;;
52210;SDS011;38179;52.756;6.906;2022-07-29T08:45:17;20.63;;;18.83;;
52210;SDS011;38179;52.756;6.906;2022-07-29T08:47:44;21.17;;;19.10;;
52210;SDS011;38179;52.756;6.906;2022-07-29T08:50:11;21.03;;;19.33;;
52210;SDS011;38179;52.756;6.906;2022-07-29T08:52:40;21.08;;;19.15;;
52210;SDS011;38179;52.756;6.906;2022-07-29T08:55:08;20.85;;;19.08;;
52210;SDS011;38179;52.756;6.906;2022-07-29T08:57:35;20.08;;;18.52;;
52210;SDS011;38179;52.756;6.906;2022-07-29T09:00:04;21.10;;;19.02;;
52210;SDS011;38179;52.756;6.906;2022-07-29T09:02:35;20.42;;;18.63;;
52210;SDS011;38179;52.756;6.906;2022-07-29T09:05:05;21.02;;;19.15;;
52210;SDS011;38179;52.756;6.906;2022-07-29T09:07:31;21.27;;;19.38;;
52210;SDS011;38179;52.756;6.906;2022-07-29T09:09:58;21.23;;;19.30;;
52210;SDS011;38179;52.756;6.906;2022-07-29T09:12:25;21.33;;;19.25;;
52210;SDS011;38179;52.756;6.906;2022-07-29T09:14:51;20.98;;;19.27;;
52210;SDS011;38179;52.756;6.906;2022-07-29T09:17:17;21.45;;;19.60;;
52210;SDS011;38179;52.756;6.906;2022-07-29T09:20:15;21.55;;;19.58;;
52210;SDS011;38179;52.756;6.906;2022-07-29T09:22:43;21.13;;;19.08;;
52210;SDS011;38179;52.756;6.906;2022-07-29T09:25:12;20.92;;;19.38;;
52210;SDS011;38179;52.756;6.906;2022-07-29T09:27:38;20.63;;;19.02;;
52210;SDS011;38179;52.756;6.906;2022-07-29T09:30:05;21.25;;;19.45;;
52210;SDS011;38179;52.756;6.906;2022-07-29T09:32:57;20.77;;;18.98;;
52210;SDS011;38179;52.756;6.906;2022-07-29T09:35:24;20.90;;;18.88;;
52210;SDS011;38179;52.756;6.906;2022-07-29T09:37:51;21.40;;;19.43;;
52210;SDS011;38179;52.756;6.906;2022-07-29T09:40:22;20.55;;;18.98;;
52210;SDS011;38179;52.756;6.906;2022-07-29T09:42:50;21.05;;;19.17;;
52210;SDS011;38179;52.756;6.906;2022-07-29T09:45:26;20.55;;;19.00;;
52210;SDS011;38179;52.756;6.906;2022-07-29T09:47:54;21.55;;;19.52;;
52210;SDS011;38179;52.756;6.906;2022-07-29T09:50:22;21.23;;;19.45;;
52210;SDS011;38179;52.756;6.906;2022-07-29T09:52:59;20.65;;;18.80;;
52210;SDS011;38179;52.756;6.906;2022-07-29T09:55:25;21.45;;;19.40;;
52210;SDS011;38179;52.756;6.906;2022-07-29T09:57:52;20.98;;;18.98;;
52210;SDS011;38179;52.756;6.906;2022-07-29T10:00:19;20.88;;;19.27;;
52210;SDS011;38179;52.756;6.906;2022-07-29T10:02:48;21.02;;;19.23;;
52210;SDS011;38179;52.756;6.906;2022-07-29T10:07:48;21.20;;;19.40;;
52210;SDS011;38179;52.756;6.906;2022-07-29T10:12:51;21.45;;;19.50;;
52210;SDS011;38179;52.756;6.906;2022-07-29T10:15:29;20.65;;;18.88;;
52210;SDS011;38179;52.756;6.906;2022-07-29T10:17:57;21.58;;;19.63;;
52210;SDS011;38179;52.756;6.906;2022-07-29T10:20:25;21.42;;;19.73;;
52210;SDS011;38179;52.756;6.906;2022-07-29T10:22:53;22.13;;;19.95;;
52210;SDS011;38179;52.756;6.906;2022-07-29T10:25:20;21.42;;;19.80;;
52210;SDS011;38179;52.756;6.906;2022-07-29T10:27:48;20.88;;;19.17;;
52210;SDS011;38179;52.756;6.906;2022-07-29T10:30:17;22.80;;;21.00;;
52210;SDS011;38179;52.756;6.906;2022-07-29T10:44:05;22.63;;;20.63;;
52210;SDS011;38179;52.756;6.906;2022-07-29T10:46:37;21.10;;;19.40;;
52210;SDS011;38179;52.756;6.906;2022-07-29T10:49:09;22.40;;;20.45;;
52210;SDS011;38179;52.756;6.906;2022-07-29T10:59:41;21.80;;;19.95;;
52210;SDS011;38179;52.756;6.906;2022-07-29T11:07:34;21.95;;;20.05;;
52210;SDS011;38179;52.756;6.906;2022-07-29T11:15:08;21.48;;;19.75;;
52210;SDS011;38179;52.756;6.906;2022-07-29T11:20:39;22.55;;;20.60;;
52210;SDS011;38179;52.756;6.906;2022-07-29T11:23:20;22.23;;;20.17;;
52210;SDS011;38179;52.756;6.906;2022-07-29T11:31:18;22.95;;;20.70;;
52210;SDS011;38179;52.756;6.906;2022-07-29T11:39:39;21.35;;;19.65;;
52210;SDS011;38179;52.756;6.906;2022-07-29T11:42:41;22.35;;;20.10;;
52210;SDS011;38179;52.756;6.906;2022-07-29T11:50:12;22.27;;;20.40;;
52210;SDS011;38179;52.756;6.906;2022-07-29T11:52:42;22.75;;;20.50;;
52210;SDS011;38179;52.756;6.906;2022-07-29T11:55:17;21.15;;;19.25;;
52210;SDS011;38179;52.756;6.906;2022-07-29T12:00:45;22.15;;;20.10;;
52210;SDS011;38179;52.756;6.906;2022-07-29T12:03:22;22.50;;;20.58;;
52210;SDS011;38179;52.756;6.906;2022-07-29T12:05:52;22.02;;;20.05;;
52210;SDS011;38179;52.756;6.906;2022-07-29T12:08:19;21.75;;;19.73;;
52210;SDS011;38179;52.756;6.906;2022-07-29T12:10:50;22.65;;;20.48;;
52210;SDS011;38179;52.756;6.906;2022-07-29T12:13:17;22.40;;;20.33;;
52210;SDS011;38179;52.756;6.906;2022-07-29T12:15:57;22.70;;;20.55;;
52210;SDS011;38179;52.756;6.906;2022-07-29T12:18:23;22.65;;;20.45;;
52210;SDS011;38179;52.756;6.906;2022-07-29T12:20:55;22.73;;;20.60;;
52210;SDS011;38179;52.756;6.906;2022-07-29T12:23:23;22.13;;;20.20;;
52210;SDS011;38179;52.756;6.906;2022-07-29T12:25:49;22.70;;;20.52;;
52210;SDS011;38179;52.756;6.906;2022-07-29T12:28:15;22.13;;;20.33;;
52210;SDS011;38179;52.756;6.906;2022-07-29T12:30:47;22.73;;;20.83;;
52210;SDS011;38179;52.756;6.906;2022-07-29T12:33:19;22.75;;;20.60;;
52210;SDS011;38179;52.756;6.906;2022-07-29T12:35:47;23.58;;;21.17;;
52210;SDS011;38179;52.756;6.906;2022-07-29T12:38:15;22.52;;;20.60;;
52210;SDS011;38179;52.756;6.906;2022-07-29T12:40:42;22.63;;;20.67;;
52210;SDS011;38179;52.756;6.906;2022-07-29T12:43:13;23.17;;;21.00;;
52210;SDS011;38179;52.756;6.906;2022-07-29T12:45:45;22.65;;;20.73;;
52210;SDS011;38179;52.756;6.906;2022-07-29T12:48:13;22.98;;;20.92;;
52210;SDS011;38179;52.756;6.906;2022-07-29T12:50:53;22.25;;;20.45;;
52210;SDS011;38179;52.756;6.906;2022-07-29T12:53:20;23.05;;;21.05;;
52210;SDS011;38179;52.756;6.906;2022-07-29T12:55:47;22.42;;;20.60;;
52210;SDS011;38179;52.756;6.906;2022-07-29T12:58:29;22.88;;;20.75;;
52210;SDS011;38179;52.756;6.906;2022-07-29T13:03:55;22.40;;;20.38;;
52210;SDS011;38179;52.756;6.906;2022-07-29T13:06:32;23.20;;;21.10;;
52210;SDS011;38179;52.756;6.906;2022-07-29T13:09:02;23.15;;;20.98;;
52210;SDS011;38179;52.756;6.906;2022-07-29T13:11:34;23.17;;;20.98;;
52210;SDS011;38179;52.756;6.906;2022-07-29T13:14:01;22.40;;;20.60;;
52210;SDS011;38179;52.756;6.906;2022-07-29T13:16:28;24.08;;;21.52;;
52210;SDS011;38179;52.756;6.906;2022-07-29T13:19:07;22.75;;;20.67;;
52210;SDS011;38179;52.756;6.906;2022-07-29T13:21:34;23.27;;;21.27;;
52210;SDS011;38179;52.756;6.906;2022-07-29T13:24:01;23.75;;;21.70;;
52210;SDS011;38179;52.756;6.906;2022-07-29T13:26:27;22.92;;;20.92;;
52210;SDS011;38179;52.756;6.906;2022-07-29T13:28:54;22.90;;;21.10;;
52210;SDS011;38179;52.756;6.906;2022-07-29T13:31:20;23.23;;;21.38;;
52210;SDS011;38179;52.756;6.906;2022-07-29T13:33:47;23.02;;;21.13;;
52210;SDS011;38179;52.756;6.906;2022-07-29T13:36:15;23.70;;;21.60;;
52210;SDS011;38179;52.756;6.906;2022-07-29T13:38:41;22.83;;;20.90;;
52210;SDS011;38179;52.756;6.906;2022-07-29T13:41:07;22.77;;;20.95;;
52210;SDS011;38179;52.756;6.906;2022-07-29T13:43:33;23.55;;;21.45;;
52210;SDS011;38179;52.756;6.906;2022-07-29T13:45:59;23.77;;;21.45;;
52210;SDS011;38179;52.756;6.906;2022-07-29T13:48:25;23.95;;;21.67;;
52210;SDS011;38179;52.756;6.906;2022-07-29T13:50:51;24.20;;;22.20;;
52210;SDS011;38179;52.756;6.906;2022-07-29T13:53:17;23.48;;;21.38;;
52210;SDS011;38179;52.756;6.906;2022-07-29T13:55:43;23.25;;;21.42;;
52210;SDS011;38179;52.756;6.906;2022-07-29T13:58:09;23.48;;;21.52;;
52210;SDS011;38179;52.756;6.906;2022-07-29T14:00:35;23.13;;;21.35;;
52210;SDS011;38179;52.756;6.906;2022-07-29T14:03:01;24.10;;;22.10;;
52210;SDS011;38179;52.756;6.906;2022-07-29T14:05:27;24.10;;;21.75;;
52210;SDS011;38179;52.756;6.906;2022-07-29T14:07:52;23.45;;;21.48;;
52210;SDS011;38179;52.756;6.906;2022-07-29T14:10:18;23.55;;;21.50;;
52210;SDS011;38179;52.756;6.906;2022-07-29T14:12:44;23.83;;;21.88;;
52210;SDS011;38179;52.756;6.906;2022-07-29T14:15:10;23.48;;;21.63;;
52210;SDS011;38179;52.756;6.906;2022-07-29T14:17:36;24.40;;;22.33;;
52210;SDS011;38179;52.756;6.906;2022-07-29T14:20:02;23.92;;;21.90;;
52210;SDS011;38179;52.756;6.906;2022-07-29T14:22:29;23.42;;;21.52;;
52210;SDS011;38179;52.756;6.906;2022-07-29T14:24:55;23.55;;;21.42;;
52210;SDS011;38179;52.756;6.906;2022-07-29T14:27:21;23.00;;;21.08;;
52210;SDS011;38179;52.756;6.906;2022-07-29T14:29:46;24.02;;;21.83;;
52210;SDS011;38179;52.756;6.906;2022-07-29T14:32:12;23.90;;;21.65;;
52210;SDS011;38179;52.756;6.906;2022-07-29T14:34:39;24.00;;;21.63;;
52210;SDS011;38179;52.756;6.906;2022-07-29T14:37:05;22.83;;;20.75;;
52210;SDS011;38179;52.756;6.906;2022-07-29T14:39:32;23.27;;;21.30;;
52210;SDS011;38179;52.756;6.906;2022-07-29T14:41:59;23.35;;;21.55;;
52210;SDS011;38179;52.756;6.906;2022-07-29T14:44:25;24.38;;;22.10;;
52210;SDS011;38179;52.756;6.906;2022-07-29T14:46:56;24.23;;;22.15;;
52210;SDS011;38179;52.756;6.906;2022-07-29T14:49:24;23.98;;;21.83;;
52210;SDS011;38179;52.756;6.906;2022-07-29T14:51:50;23.70;;;21.83;;
52210;SDS011;38179;52.756;6.906;2022-07-29T14:54:16;23.60;;;21.70;;
52210;SDS011;38179;52.756;6.906;2022-07-29T14:56:43;24.00;;;21.75;;
52210;SDS011;38179;52.756;6.906;2022-07-29T14:59:08;23.80;;;21.63;;
52210;SDS011;38179;52.756;6.906;2022-07-29T15:01:34;24.58;;;22.40;;
52210;SDS011;38179;52.756;6.906;2022-07-29T15:04:00;23.95;;;22.10;;
52210;SDS011;38179;52.756;6.906;2022-07-29T15:06:26;24.00;;;22.10;;
52210;SDS011;38179;52.756;6.906;2022-07-29T15:08:52;24.42;;;22.23;;
52210;SDS011;38179;52.756;6.906;2022-07-29T15:11:19;24.60;;;22.42;;
52210;SDS011;38179;52.756;6.906;2022-07-29T15:13:44;24.58;;;22.38;;
52210;SDS011;38179;52.756;6.906;2022-07-29T15:16:10;24.25;;;22.15;;
52210;SDS011;38179;52.756;6.906;2022-07-29T15:18:36;24.58;;;22.35;;
52210;SDS011;38179;52.756;6.906;2022-07-29T15:21:03;24.90;;;22.58;;
52210;SDS011;38179;52.756;6.906;2022-07-29T15:23:34;24.20;;;22.23;;
52210;SDS011;38179;52.756;6.906;2022-07-29T15:26:01;24.52;;;22.20;;
52210;SDS011;38179;52.756;6.906;2022-07-29T15:28:28;24.27;;;22.35;;
52210;SDS011;38179;52.756;6.906;2022-07-29T15:30:54;24.35;;;22.23;;
52210;SDS011;38179;52.756;6.906;2022-07-29T15:33:20;24.10;;;22.20;;
52210;SDS011;38179;52.756;6.906;2022-07-29T15:35:46;24.67;;;22.67;;
52210;SDS011;38179;52.756;6.906;2022-07-29T15:38:12;24.27;;;22.48;;
52210;SDS011;38179;52.756;6.906;2022-07-29T15:40:38;23.75;;;21.95;;
52210;SDS011;38179;52.756;6.906;2022-07-29T15:43:06;23.50;;;21.50;;
52210;SDS011;38179;52.756;6.906;2022-07-29T15:45:34;23.58;;;21.67;;
52210;SDS011;38179;52.756;6.906;2022-07-29T15:48:07;23.63;;;21.65;;